Time;durP1;ratioP1;P1;durP2;ratioP2;P2;SDS_P1;SDS_P2;PMS_P1;PMS_P2;Temp;Humidity;BMP_temperature;BMP_pressure;BME280_temperature;BME280_humidity;BME280_pressure;Samples;Min_cycle;Max_cycle;Signal;HPM_P1;HPM_P2
2021/03/29 00:01:43;;;;;;;1.40;1.20;;;6.70;98.00;;;;;;5093007;28;20798;-65
2021/03/29 00:04:10;;;;;;;1.20;1.07;;;6.50;98.00;;;;;;5092608;28;20957;-65
2021/03/29 00:06:39;;;;;;;2.07;1.73;;;6.40;98.00;;;;;;5093463;28;20462;-65
2021/03/29 00:09:07;;;;;;;3.30;1.50;;;6.40;98.00;;;;;;5090694;28;20523;-65
2021/03/29 00:11:36;;;;;;;1.20;0.90;;;6.40;98.00;;;;;;5093469;28;20482;-65
2021/03/29 00:14:03;;;;;;;1.30;1.00;;;6.40;98.00;;;;;;5090922;28;20484;-65
2021/03/29 00:16:35;;;;;;;1.30;1.30;;;6.30;98.00;;;;;;5093016;28;20449;-65
2021/03/29 00:19:01;;;;;;;1.30;1.30;;;6.50;98.00;;;;;;5091031;28;20462;-65
2021/03/29 00:21:28;;;;;;;1.20;1.00;;;6.50;98.00;;;;;;5092947;28;20483;-65
2021/03/29 00:23:55;;;;;;;1.20;1.00;;;6.50;98.00;;;;;;5090761;28;20491;-65
2021/03/29 00:26:22;;;;;;;1.60;1.20;;;6.50;98.00;;;;;;5093121;28;20559;-65
2021/03/29 00:28:50;;;;;;;1.20;1.00;;;6.50;98.00;;;;;;5090584;28;20451;-65
2021/03/29 00:31:16;;;;;;;1.20;1.00;;;6.40;98.00;;;;;;5092951;28;20468;-65
2021/03/29 00:33:44;;;;;;;1.20;1.03;;;6.30;98.00;;;;;;5090164;28;20454;-65
2021/03/29 00:36:12;;;;;;;1.23;1.17;;;6.30;98.00;;;;;;5092761;28;20889;-65
2021/03/29 00:38:40;;;;;;;3.20;1.47;;;6.30;98.00;;;;;;5090581;28;21016;-65
2021/03/29 00:41:09;;;;;;;1.20;0.90;;;6.40;98.00;;;;;;5091614;28;20500;-65
2021/03/29 00:43:40;;;;;;;1.20;1.00;;;6.50;98.00;;;;;;5090479;28;20467;-65
2021/03/29 00:46:10;;;;;;;1.20;1.00;;;6.70;98.00;;;;;;5092683;28;20502;-65
2021/03/29 00:48:37;;;;;;;1.20;1.10;;;6.70;98.00;;;;;;5090747;28;20476;-65
2021/03/29 00:51:10;;;;;;;1.20;0.90;;;6.80;98.00;;;;;;5092777;28;20481;-65
2021/03/29 00:53:38;;;;;;;1.20;1.20;;;6.80;98.00;;;;;;5090257;28;20874;-65
2021/03/29 00:56:06;;;;;;;1.20;1.00;;;6.80;98.00;;;;;;5092802;28;20956;-65
2021/03/29 00:58:33;;;;;;;1.30;1.20;;;6.90;98.00;;;;;;5090435;28;20457;-65
2021/03/29 01:01:04;;;;;;;1.20;1.00;;;6.70;98.00;;;;;;5092501;28;20466;-65
2021/03/29 01:03:34;;;;;;;1.60;1.27;;;6.60;98.00;;;;;;5090057;28;20842;-65
2021/03/29 01:06:04;;;;;;;1.20;0.90;;;6.60;98.00;;;;;;5091796;28;20454;-65
2021/03/29 01:08:31;;;;;;;1.30;1.00;;;6.50;98.00;;;;;;5089230;28;20452;-65
2021/03/29 01:11:00;;;;;;;1.20;1.00;;;6.40;98.00;;;;;;5091698;28;20482;-65
2021/03/29 01:13:28;;;;;;;1.50;1.10;;;6.40;98.00;;;;;;5088261;28;20455;-65
2021/03/29 01:15:56;;;;;;;1.20;1.00;;;6.30;98.00;;;;;;5092101;28;20795;-65
2021/03/29 01:18:25;;;;;;;1.50;1.10;;;6.30;98.00;;;;;;5090013;28;20945;-65
2021/03/29 01:21:03;;;;;;;3.87;2.10;;;6.40;98.00;;;;;;5092149;28;20469;-65
2021/03/29 01:23:31;;;;;;;1.20;0.90;;;6.50;98.00;;;;;;5089332;28;20467;-65
2021/03/29 01:26:04;;;;;;;1.20;1.00;;;6.50;98.00;;;;;;5091941;28;20456;-65
2021/03/29 01:28:32;;;;;;;1.87;1.23;;;6.40;98.00;;;;;;5089657;28;20471;-65
2021/03/29 01:30:59;;;;;;;1.20;1.00;;;6.30;98.00;;;;;;5091953;28;20886;-65
2021/03/29 01:33:27;;;;;;;1.30;1.10;;;6.30;98.00;;;;;;5088845;28;20493;-65
2021/03/29 01:35:58;;;;;;;1.73;1.33;;;6.30;98.00;;;;;;5091752;28;20796;-65
2021/03/29 01:38:28;;;;;;;1.27;1.03;;;6.40;98.00;;;;;;5089306;28;20458;-65
2021/03/29 01:40:56;;;;;;;1.20;1.00;;;6.40;98.00;;;;;;5091806;28;20450;-65
2021/03/29 01:43:23;;;;;;;1.20;1.00;;;6.40;98.00;;;;;;5089214;28;20504;-65
2021/03/29 01:45:51;;;;;;;1.20;1.00;;;6.40;98.00;;;;;;5091636;28;20472;-65
2021/03/29 01:48:18;;;;;;;1.20;1.00;;;6.30;98.00;;;;;;5089612;28;20485;-65
2021/03/29 01:50:47;;;;;;;1.20;1.00;;;6.40;98.00;;;;;;5091675;28;20635;-65
2021/03/29 01:53:15;;;;;;;1.20;1.00;;;6.40;98.00;;;;;;5089594;28;20508;-65
2021/03/29 01:55:42;;;;;;;1.20;1.00;;;6.20;98.00;;;;;;5091687;28;20851;-65
2021/03/29 01:58:10;;;;;;;1.20;0.90;;;6.10;98.00;;;;;;5089539;28;20477;-65
2021/03/29 02:00:40;;;;;;;1.40;1.37;;;6.00;98.00;;;;;;5091926;28;20483;-65
2021/03/29 02:03:08;;;;;;;23.83;1.47;;;6.00;98.00;;;;;;5089360;28;20926;-65
2021/03/29 02:05:35;;;;;;;5.27;1.23;;;6.00;98.00;;;;;;5091755;28;20557;-65
2021/03/29 02:08:03;;;;;;;1.20;1.00;;;6.00;98.00;;;;;;5088874;28;20510;-65
2021/03/29 02:10:40;;;;;;;1.40;1.40;;;5.90;98.00;;;;;;5091639;28;20480;-65
2021/03/29 02:13:08;;;;;;;1.30;1.10;;;6.00;98.00;;;;;;5089416;28;20460;-65
2021/03/29 02:15:35;;;;;;;1.60;1.27;;;5.90;98.00;;;;;;5091587;28;21015;-65
2021/03/29 02:18:03;;;;;;;1.50;1.17;;;5.70;98.00;;;;;;5088826;28;20452;-65
2021/03/29 02:20:36;;;;;;;1.40;1.00;;;5.50;98.00;;;;;;5091442;28;20450;-65
2021/03/29 02:23:05;;;;;;;1.20;1.10;;;5.30;98.00;;;;;;5089312;28;20450;-65
2021/03/29 02:25:32;;;;;;;1.83;1.37;;;5.20;98.00;;;;;;5091433;28;20478;-65
2021/03/29 02:28:01;;;;;;;1.20;1.00;;;5.30;98.00;;;;;;5088292;28;20821;-65
2021/03/29 02:30:33;;;;;;;1.40;1.10;;;5.30;98.00;;;;;;5091333;28;20850;-65
2021/03/29 02:33:01;;;;;;;1.30;1.10;;;5.10;98.00;;;;;;5089349;28;20516;-65
2021/03/29 02:35:27;;;;;;;1.50;1.20;;;5.20;98.00;;;;;;5091263;28;20824;-65
2021/03/29 02:37:57;;;;;;;1.20;1.00;;;5.30;98.00;;;;;;5088772;28;20459;-64
2021/03/29 02:40:25;;;;;;;1.20;1.10;;;5.20;98.00;;;;;;5091166;28;20452;-65
2021/03/29 02:42:55;;;;;;;1.20;1.00;;;5.10;98.00;;;;;;5088456;28;20454;-65
2021/03/29 02:45:24;;;;;;;1.20;1.00;;;5.10;98.00;;;;;;5091491;28;20535;-65
2021/03/29 02:47:53;;;;;;;1.20;1.00;;;5.00;98.00;;;;;;5092288;28;20493;-65
2021/03/29 02:50:23;;;;;;;1.20;1.00;;;5.00;98.00;;;;;;5094904;28;20511;-65
2021/03/29 02:52:53;;;;;;;1.30;1.20;;;4.90;98.00;;;;;;5092432;28;20459;-65
2021/03/29 02:55:21;;;;;;;1.20;1.20;;;4.90;98.00;;;;;;5094820;28;20518;-65
2021/03/29 02:57:51;;;;;;;1.20;1.10;;;5.00;98.00;;;;;;5092297;28;20490;-65
2021/03/29 03:00:23;;;;;;;1.50;1.10;;;5.00;98.00;;;;;;5095040;28;20448;-65
2021/03/29 03:02:51;;;;;;;1.20;0.90;;;5.10;98.00;;;;;;5091961;28;20511;-65
2021/03/29 03:05:20;;;;;;;1.20;1.00;;;5.00;98.00;;;;;;5093384;28;20466;-65
2021/03/29 03:07:50;;;;;;;1.20;1.00;;;5.00;98.00;;;;;;5092600;28;20454;-65
2021/03/29 03:10:16;;;;;;;1.20;0.97;;;5.10;98.00;;;;;;5094780;28;20535;-65
2021/03/29 03:12:59;;;;;;;1.30;1.00;;;4.90;98.00;;;;;;5092085;28;20955;-65
2021/03/29 03:15:28;;;;;;;1.20;1.10;;;4.80;98.00;;;;;;5094027;28;20849;-65
2021/03/29 03:17:58;;;;;;;1.20;0.97;;;4.80;98.00;;;;;;5092273;28;20863;-65
2021/03/29 03:20:26;;;;;;;1.77;1.57;;;4.80;98.00;;;;;;5093035;28;20465;-65
2021/03/29 03:22:54;;;;;;;1.83;1.53;;;4.90;98.00;;;;;;5091959;28;20483;-65
2021/03/29 03:25:23;;;;;;;1.20;1.10;;;4.70;98.00;;;;;;5092746;28;20547;-65
2021/03/29 03:27:56;;;;;;;1.20;1.00;;;4.60;98.00;;;;;;5091911;28;20502;-65
2021/03/29 03:30:26;;;;;;;1.20;1.00;;;4.80;98.00;;;;;;5092842;28;20480;-65
2021/03/29 03:32:54;;;;;;;1.20;1.00;;;4.90;98.00;;;;;;5092064;28;20493;-65
2021/03/29 03:35:24;;;;;;;1.67;1.63;;;5.00;98.00;;;;;;5094021;28;20554;-65
2021/03/29 03:37:58;;;;;;;1.20;1.00;;;5.00;98.00;;;;;;5091668;28;20464;-65
2021/03/29 03:40:25;;;;;;;1.30;1.30;;;4.80;98.00;;;;;;5094081;28;20480;-65
2021/03/29 03:42:55;;;;;;;1.20;0.90;;;4.70;98.00;;;;;;5090388;28;20490;-65
2021/03/29 03:45:27;;;;;;;1.20;1.00;;;4.40;98.00;;;;;;5093700;28;21195;-65
2021/03/29 03:47:55;;;;;;;1.20;1.00;;;4.50;98.00;;;;;;5091315;28;20502;-65
2021/03/29 03:50:23;;;;;;;1.20;1.10;;;4.50;98.00;;;;;;5093659;28;20556;-65
2021/03/29 03:52:51;;;;;;;1.20;1.00;;;4.40;98.00;;;;;;5091551;28;20477;-65
2021/03/29 03:55:18;;;;;;;1.20;1.00;;;4.50;98.00;;;;;;5093622;28;20507;-65
2021/03/29 03:57:45;;;;;;;1.20;1.00;;;4.40;98.00;;;;;;5090431;28;20976;-65
2021/03/29 04:00:19;;;;;;;1.20;1.00;;;4.40;98.00;;;;;;5093831;28;20543;-65
2021/03/29 04:02:49;;;;;;;1.20;1.10;;;4.40;98.00;;;;;;5091361;28;20448;-65
2021/03/29 04:05:17;;;;;;;1.20;1.20;;;4.20;98.00;;;;;;5093719;28;20924;-65
2021/03/29 04:07:44;;;;;;;1.37;1.30;;;4.30;98.00;;;;;;5090532;28;21007;-65
2021/03/29 04:10:15;;;;;;;1.20;1.00;;;4.20;98.00;;;;;;5093728;28;20888;-65
2021/03/29 04:12:43;;;;;;;1.20;1.00;;;4.20;98.00;;;;;;5091373;28;20503;-64
2021/03/29 04:15:11;;;;;;;1.60;1.30;;;4.30;98.00;;;;;;5093451;28;20476;-64
2021/03/29 04:17:39;;;;;;;1.80;1.23;;;4.40;98.00;;;;;;5089892;28;20454;-65
2021/03/29 04:20:07;;;;;;;1.20;1.00;;;4.40;98.00;;;;;;5093308;28;20941;-65
2021/03/29 04:22:34;;;;;;;1.20;1.00;;;4.30;98.00;;;;;;5072715;28;20603;-64
2021/03/29 04:25:02;;;;;;;1.20;1.13;;;4.30;98.00;;;;;;5093203;28;20931;-65
2021/03/29 04:27:28;;;;;;;1.20;1.00;;;4.40;98.00;;;;;;5090589;28;20493;-65
2021/03/29 04:29:55;;;;;;;1.30;1.30;;;4.40;98.00;;;;;;5093041;28;20485;-65
2021/03/29 04:32:21;;;;;;;1.20;1.00;;;4.50;98.00;;;;;;5089499;28;20469;-65
2021/03/29 04:34:49;;;;;;;1.30;1.13;;;4.50;98.00;;;;;;5092679;28;20868;-65
2021/03/29 04:37:16;;;;;;;1.30;1.07;;;4.60;98.00;;;;;;5090680;28;20532;-65
2021/03/29 04:39:42;;;;;;;1.20;1.00;;;4.60;98.00;;;;;;5092936;28;20514;-65
2021/03/29 04:42:09;;;;;;;1.30;1.27;;;4.70;98.00;;;;;;5092885;28;21075;-65
2021/03/29 04:44:37;;;;;;;1.20;1.00;;;4.70;98.00;;;;;;5090987;28;21060;-65
2021/03/29 04:47:04;;;;;;;1.23;1.10;;;4.60;98.00;;;;;;5092552;28;20966;-65
2021/03/29 04:49:30;;;;;;;1.20;1.10;;;4.80;98.00;;;;;;5090283;28;20545;-65
2021/03/29 04:51:58;;;;;;;1.20;1.10;;;4.90;98.00;;;;;;5092480;28;20457;-65
2021/03/29 04:54:25;;;;;;;1.20;1.00;;;4.90;98.00;;;;;;5089905;28;20458;-64
2021/03/29 04:56:51;;;;;;;1.33;1.30;;;4.90;98.00;;;;;;5092581;28;20483;-65
2021/03/29 04:59:18;;;;;;;1.20;1.00;;;5.00;98.00;;;;;;5090193;28;20863;-65
2021/03/29 05:01:44;;;;;;;2.27;1.20;;;5.00;98.00;;;;;;5092345;28;21151;-65
2021/03/29 05:04:11;;;;;;;1.50;1.20;;;4.90;98.00;;;;;;5090317;28;20510;-65
2021/03/29 05:06:37;;;;;;;1.20;1.00;;;4.90;98.00;;;;;;5092322;28;20484;-65
2021/03/29 05:09:06;;;;;;;1.20;0.93;;;4.80;98.00;;;;;;5089480;28;20483;-65
2021/03/29 05:11:45;;;;;;;1.20;1.00;;;4.70;98.00;;;;;;5092163;28;20455;-65
2021/03/29 05:14:12;;;;;;;4.30;1.33;;;4.70;98.00;;;;;;5089806;28;20486;-65
2021/03/29 05:16:39;;;;;;;1.30;1.03;;;4.70;98.00;;;;;;5091073;28;20847;-65
2021/03/29 05:19:07;;;;;;;1.40;1.10;;;4.80;98.00;;;;;;5089989;28;20461;-65
2021/03/29 05:21:34;;;;;;;1.20;1.00;;;4.90;98.00;;;;;;5092340;28;20874;-65
2021/03/29 05:24:00;;;;;;;1.23;1.07;;;4.90;98.00;;;;;;5089736;28;20976;-65
2021/03/29 05:26:27;;;;;;;1.20;1.00;;;5.00;98.00;;;;;;5091860;28;20460;-65
2021/03/29 05:28:56;;;;;;;1.67;1.27;;;4.90;98.00;;;;;;5089747;28;20505;-65
2021/03/29 05:31:22;;;;;;;1.40;1.20;;;4.80;98.00;;;;;;5091730;28;20482;-65
2021/03/29 05:33:49;;;;;;;1.20;1.00;;;4.80;98.00;;;;;;5089674;28;20469;-64
2021/03/29 05:36:16;;;;;;;1.63;1.17;;;5.00;98.00;;;;;;5092051;28;20509;-64
2021/03/29 05:38:44;;;;;;;1.73;1.30;;;5.00;98.00;;;;;;5089548;28;20460;-65
2021/03/29 05:41:10;;;;;;;3.00;1.47;;;5.20;98.00;;;;;;5091882;28;20455;-65
2021/03/29 05:43:39;;;;;;;1.20;1.00;;;5.20;98.00;;;;;;5089514;28;20492;-64
2021/03/29 05:46:06;;;;;;;6.40;2.93;;;5.20;98.00;;;;;;5091469;28;20474;-65
2021/03/29 05:48:35;;;;;;;1.30;1.10;;;5.20;98.00;;;;;;5089227;28;20452;-64
2021/03/29 05:51:03;;;;;;;1.57;1.30;;;5.20;98.00;;;;;;5091431;28;20485;-65
2021/03/29 05:53:29;;;;;;;1.20;1.00;;;5.10;98.00;;;;;;5089343;28;20462;-65
2021/03/29 05:55:58;;;;;;;1.20;0.90;;;5.10;98.00;;;;;;5090371;28;20448;-64
2021/03/29 05:58:38;;;;;;;1.33;1.10;;;5.10;98.00;;;;;;5089329;28;20461;-64
2021/03/29 06:01:06;;;;;;;1.40;1.20;;;5.20;98.00;;;;;;5091529;28;20453;-64
2021/03/29 06:03:35;;;;;;;1.30;1.20;;;5.30;98.00;;;;;;5089423;28;20501;-65
2021/03/29 06:06:16;;;;;;;1.20;1.00;;;5.40;98.00;;;;;;5090117;28;20473;-64
2021/03/29 06:08:45;;;;;;;1.87;1.40;;;5.50;98.00;;;;;;5089095;28;20463;-64
2021/03/29 06:11:21;;;;;;;1.33;1.17;;;5.60;98.00;;;;;;5091855;28;20539;-64
2021/03/29 06:14:05;;;;;;;1.30;1.27;;;5.70;98.00;;;;;;5089372;28;20524;-65
2021/03/29 06:16:32;;;;;;;1.20;1.00;;;5.80;98.00;;;;;;5091587;28;20508;-65
2021/03/29 06:19:01;;;;;;;1.80;1.20;;;5.70;98.00;;;;;;5088976;28;20589;-65
2021/03/29 06:21:28;;;;;;;1.20;0.90;;;5.70;98.00;;;;;;5094393;28;20463;-65
2021/03/29 06:23:59;;;;;;;1.20;1.00;;;5.70;98.00;;;;;;5093100;28;20984;-65
2021/03/29 06:26:29;;;;;;;2.43;1.77;;;5.90;98.00;;;;;;5095490;28;20453;-65
2021/03/29 06:28:55;;;;;;;1.20;1.10;;;6.00;98.00;;;;;;5092873;28;20793;-65
2021/03/29 06:31:30;;;;;;;1.40;1.00;;;5.90;98.00;;;;;;5095312;28;20516;-65
2021/03/29 06:33:59;;;;;;;1.33;1.23;;;6.00;98.00;;;;;;5093171;28;20592;-64
2021/03/29 06:36:36;;;;;;;1.20;1.00;;;6.30;98.00;;;;;;5095413;28;20455;-65
2021/03/29 06:39:11;;;;;;;1.40;1.00;;;6.40;98.00;;;;;;5092988;28;20455;-65
2021/03/29 06:41:39;;;;;;;1.20;1.00;;;6.60;98.00;;;;;;5095025;28;20513;-64
2021/03/29 06:44:07;;;;;;;1.67;1.43;;;6.70;98.00;;;;;;5091310;28;21062;-65
2021/03/29 06:46:34;;;;;;;1.20;1.00;;;6.70;98.00;;;;;;5094810;28;20460;-65
2021/03/29 06:49:01;;;;;;;1.60;1.33;;;6.80;98.00;;;;;;5092578;28;21105;-65
2021/03/29 06:51:31;;;;;;;1.30;1.10;;;6.80;98.00;;;;;;5093534;28;20871;-65
2021/03/29 06:54:05;;;;;;;1.63;1.27;;;6.80;98.00;;;;;;5092160;28;20541;-65
2021/03/29 06:56:33;;;;;;;1.30;1.13;;;6.80;98.00;;;;;;5094616;28;20465;-65
2021/03/29 06:59:21;;;;;;;4.57;1.83;;;7.00;98.00;;;;;;5091566;28;20465;-64
2021/03/29 07:01:50;;;;;;;1.20;1.00;;;7.10;98.00;;;;;;5094099;28;20543;-65
2021/03/29 07:04:22;;;;;;;2.70;1.40;;;7.10;98.00;;;;;;5091535;28;20944;-65
2021/03/29 07:06:49;;;;;;;1.20;1.10;;;7.20;98.00;;;;;;5094290;28;20479;-65
2021/03/29 07:09:16;;;;;;;2.43;2.27;;;7.20;98.00;;;;;;5092078;28;20451;-65
2021/03/29 07:11:44;;;;;;;2.23;1.63;;;7.10;98.00;;;;;;5094621;28;20488;-65
2021/03/29 07:14:12;;;;;;;1.23;1.20;;;7.00;98.00;;;;;;5092262;28;20453;-64
2021/03/29 07:16:40;;;;;;;1.40;1.23;;;7.00;98.00;;;;;;5094649;28;20507;-65
2021/03/29 07:19:10;;;;;;;2.57;1.33;;;7.20;98.00;;;;;;5092293;28;20499;-65
2021/03/29 07:21:38;;;;;;;2.50;1.97;;;7.30;98.00;;;;;;5093858;28;20463;-65
2021/03/29 07:24:09;;;;;;;1.33;1.30;;;7.40;98.00;;;;;;5092194;28;20807;-65
2021/03/29 07:26:39;;;;;;;1.53;1.43;;;7.50;98.00;;;;;;5094342;28;20974;-65
2021/03/29 07:29:24;;;;;;;2.17;1.30;;;7.60;98.00;;;;;;5092019;28;20465;-65
2021/03/29 07:31:52;;;;;;;3.30;2.10;;;7.80;98.00;;;;;;5093473;28;20558;-65
2021/03/29 07:34:39;;;;;;;1.20;1.10;;;7.90;98.00;;;;;;5091793;28;20452;-65
2021/03/29 07:37:26;;;;;;;1.77;1.60;;;8.00;98.00;;;;;;5093670;28;20499;-65
2021/03/29 07:39:52;;;;;;;2.17;1.13;;;8.10;98.00;;;;;;5091482;28;20455;-66
2021/03/29 07:42:36;;;;;;;1.33;1.30;;;8.30;98.00;;;;;;5093978;28;20520;-66
2021/03/29 07:45:07;;;;;;;1.20;1.00;;;9.70;98.00;;;;;;5093699;28;20464;-66
2021/03/29 07:47:45;;;;;;;5.37;1.83;;;10.80;98.00;;;;;;5091432;28;20476;-67
2021/03/29 07:50:17;;;;;;;1.40;1.30;;;11.80;97.40;;;;;;5093594;28;20479;-67
2021/03/29 07:52:49;;;;;;;2.07;1.40;;;12.70;94.30;;;;;;5090955;28;20454;-66
2021/03/29 07:55:23;;;;;;;1.63;1.40;;;13.50;91.00;;;;;;5091697;28;20490;-67
2021/03/29 07:58:05;;;;;;;2.47;1.50;;;14.20;87.70;;;;;;5090131;28;20905;-69
2021/03/29 08:00:46;;;;;;;1.57;1.37;;;14.80;86.00;;;;;;5093284;28;20460;-67
2021/03/29 08:03:48;;;;;;;2.83;2.13;;;14.80;80.70;;;;;;5090952;28;20463;-67
2021/03/29 08:06:43;;;;;;;1.20;1.10;;;14.30;82.20;;;;;;5091583;28;20489;-68
2021/03/29 08:09:43;;;;;;;1.20;1.00;;;13.60;82.80;;;;;;5090289;28;20487;-68
2021/03/29 08:12:25;;;;;;;1.50;1.20;;;12.90;85.10;;;;;;5093024;28;21025;-68
2021/03/29 08:14:55;;;;;;;1.80;1.27;;;12.50;86.40;;;;;;5090085;28;20462;-65
2021/03/29 08:17:47;;;;;;;1.20;1.00;;;12.10;86.50;;;;;;5092902;28;20541;-66
2021/03/29 08:20:20;;;;;;;2.33;2.17;;;12.20;84.70;;;;;;5092794;28;20540;-68
2021/03/29 08:23:24;;;;;;;1.63;1.10;;;12.30;84.70;;;;;;5090781;28;20464;-65
2021/03/29 08:26:06;;;;;;;3.63;1.60;;;12.10;84.00;;;;;;5092253;28;20505;-70
2021/03/29 08:29:06;;;;;;;1.67;1.57;;;12.00;84.50;;;;;;5090420;28;20475;-68
2021/03/29 08:32:15;;;;;;;2.23;1.33;;;12.10;84.10;;;;;;5085070;28;20558;-67
2021/03/29 08:34:52;;;;;;;1.90;1.53;;;12.00;83.60;;;;;;5090177;28;20570;-67
2021/03/29 08:37:22;;;;;;;1.20;1.13;;;12.30;83.30;;;;;;5092491;28;20452;-67
2021/03/29 08:39:50;;;;;;;1.93;1.33;;;12.40;83.80;;;;;;5090124;28;20466;-68
2021/03/29 08:42:19;;;;;;;2.40;1.40;;;12.60;83.40;;;;;;5092308;28;20490;-70
2021/03/29 08:44:48;;;;;;;1.40;1.20;;;12.80;81.40;;;;;;5089790;28;20445;-71
2021/03/29 08:47:17;;;;;;;1.30;1.20;;;13.00;81.20;;;;;;5091832;28;20842;-70
2021/03/29 08:49:46;;;;;;;2.07;1.40;;;13.20;80.50;;;;;;5089461;28;20542;-66
2021/03/29 08:52:13;;;;;;;1.43;1.23;;;13.30;81.70;;;;;;5092288;28;20453;-65
2021/03/29 08:54:58;;;;;;;1.60;1.23;;;13.50;81.20;;;;;;5089486;28;20470;-68
2021/03/29 08:57:28;;;;;;;1.30;1.00;;;13.70;80.80;;;;;;5091552;28;20479;-67
2021/03/29 09:00:11;;;;;;;2.77;1.13;;;13.90;80.30;;;;;;5089588;28;20455;-65
2021/03/29 09:02:39;;;;;;;2.33;1.60;;;14.10;80.10;;;;;;5090639;28;20461;-67
2021/03/29 09:05:09;;;;;;;3.93;2.10;;;14.20;79.40;;;;;;5091933;28;20526;-67
2021/03/29 09:07:42;;;;;;;1.97;1.47;;;14.20;79.60;;;;;;5092228;28;20458;-67
2021/03/29 09:10:18;;;;;;;2.73;1.23;;;14.40;79.60;;;;;;5091158;28;20513;-68
2021/03/29 09:12:51;;;;;;;3.50;1.50;;;14.50;75.80;;;;;;5088196;28;20507;-68
2021/03/29 09:15:24;;;;;;;1.57;1.30;;;14.70;75.80;;;;;;5090590;28;20494;-68
2021/03/29 09:17:59;;;;;;;1.40;1.10;;;14.90;77.30;;;;;;5089426;28;20452;-66
2021/03/29 09:20:26;;;;;;;1.80;1.10;;;15.00;76.10;;;;;;5090527;28;20450;-67
2021/03/29 09:22:53;;;;;;;1.20;1.20;;;15.20;74.70;;;;;;5089192;28;20459;-70
2021/03/29 09:25:25;;;;;;;1.20;1.00;;;15.30;73.50;;;;;;5091252;28;20499;-66
2021/03/29 09:28:17;;;;;;;1.30;1.13;;;15.50;71.70;;;;;;5089065;28;20959;-67
2021/03/29 09:30:47;;;;;;;1.27;1.10;;;15.70;73.70;;;;;;5091505;28;20570;-66
2021/03/29 09:33:14;;;;;;;1.50;1.20;;;16.00;74.60;;;;;;5089051;28;20458;-66
2021/03/29 09:35:41;;;;;;;1.30;1.10;;;16.20;72.30;;;;;;5091160;28;20479;-66
2021/03/29 09:38:08;;;;;;;1.20;1.00;;;16.40;69.80;;;;;;5088817;28;20524;-66
2021/03/29 09:40:36;;;;;;;1.20;1.03;;;16.50;69.50;;;;;;5091406;28;20475;-66
2021/03/29 09:43:03;;;;;;;1.20;0.90;;;16.70;67.00;;;;;;5088832;28;20474;-66
2021/03/29 09:45:32;;;;;;;1.40;1.20;;;16.80;69.40;;;;;;5091037;28;20928;-67
2021/03/29 09:48:00;;;;;;;1.20;1.00;;;17.00;68.20;;;;;;5088505;28;20981;-66
2021/03/29 09:50:30;;;;;;;1.30;1.20;;;17.20;67.60;;;;;;5091257;28;20969;-67
2021/03/29 09:53:22;;;;;;;1.50;1.30;;;17.40;66.50;;;;;;5088890;28;20942;-66
2021/03/29 09:55:51;;;;;;;1.20;1.07;;;17.50;63.50;;;;;;5090246;28;20451;-66
2021/03/29 09:58:25;;;;;;;1.40;1.17;;;17.60;63.90;;;;;;5088345;28;20456;-67
2021/03/29 10:00:55;;;;;;;1.20;1.00;;;17.80;64.90;;;;;;5091728;28;20454;-68
2021/03/29 10:03:23;;;;;;;1.20;1.03;;;18.00;62.50;;;;;;5088853;28;20466;-68
2021/03/29 10:05:50;;;;;;;1.50;1.20;;;18.20;62.70;;;;;;5091082;28;20804;-68
2021/03/29 10:08:28;;;;;;;3.20;1.77;;;18.20;62.90;;;;;;5088520;28;20484;-69
2021/03/29 10:11:07;;;;;;;1.40;1.10;;;18.30;62.80;;;;;;5091143;28;20522;-65
2021/03/29 10:13:35;;;;;;;2.67;1.57;;;18.50;60.80;;;;;;5087537;28;20456;-66
2021/03/29 10:16:23;;;;;;;1.20;1.00;;;18.40;60.70;;;;;;5090722;28;20471;-66
2021/03/29 10:19:03;;;;;;;2.70;1.37;;;18.60;60.90;;;;;;5088473;28;20470;-66
2021/03/29 10:21:30;;;;;;;1.40;1.17;;;18.60;59.30;;;;;;5090936;28;20483;-65
2021/03/29 10:24:11;;;;;;;1.20;1.10;;;18.70;61.10;;;;;;5088820;28;20805;-65
2021/03/29 10:26:38;;;;;;;1.37;1.20;;;18.70;58.50;;;;;;5090650;28;20491;-66
2021/03/29 10:29:07;;;;;;;1.40;1.30;;;18.80;59.70;;;;;;5088555;28;20456;-66
2021/03/29 10:31:37;;;;;;;1.40;1.30;;;19.10;61.00;;;;;;5089382;28;20480;-66
2021/03/29 10:34:04;;;;;;;3.70;1.10;;;19.30;58.80;;;;;;5088517;28;20463;-66
2021/03/29 10:36:31;;;;;;;1.70;1.30;;;19.50;59.40;;;;;;5090427;28;20456;-66
2021/03/29 10:38:59;;;;;;;1.20;1.00;;;19.60;58.00;;;;;;5088470;28;20460;-66
2021/03/29 10:41:25;;;;;;;1.20;1.07;;;19.70;57.70;;;;;;5090532;28;20451;-66
2021/03/29 10:43:52;;;;;;;1.30;1.20;;;19.70;58.30;;;;;;5088092;28;20463;-66
2021/03/29 10:46:19;;;;;;;1.20;1.10;;;19.80;58.00;;;;;;5090401;28;20479;-66
2021/03/29 10:48:46;;;;;;;1.40;1.40;;;19.90;58.30;;;;;;5088146;28;20954;-66
2021/03/29 10:51:13;;;;;;;1.20;1.00;;;19.90;58.20;;;;;;5089681;28;20626;-66
2021/03/29 10:53:40;;;;;;;1.30;1.00;;;20.10;58.00;;;;;;5088272;28;20960;-66
2021/03/29 10:56:07;;;;;;;1.70;1.20;;;20.20;58.00;;;;;;5089572;28;20463;-66
2021/03/29 10:58:34;;;;;;;1.20;1.20;;;20.30;56.80;;;;;;5088167;28;20479;-66
2021/03/29 11:01:04;;;;;;;1.30;1.13;;;20.30;58.60;;;;;;5090015;28;20540;-66
2021/03/29 11:03:31;;;;;;;1.30;1.07;;;20.60;58.70;;;;;;5088230;28;20460;-66
2021/03/29 11:05:58;;;;;;;1.20;1.10;;;20.90;59.40;;;;;;5088355;28;20456;-66
2021/03/29 11:08:25;;;;;;;1.43;1.13;;;20.90;56.20;;;;;;5091636;28;20448;-66
2021/03/29 11:10:52;;;;;;;1.37;1.13;;;21.00;57.80;;;;;;5093495;28;20580;-66
2021/03/29 11:13:20;;;;;;;1.83;1.53;;;21.00;56.70;;;;;;5091490;28;20825;-67
2021/03/29 11:15:47;;;;;;;1.20;1.20;;;21.00;57.90;;;;;;5075136;28;20455;-67
2021/03/29 11:18:25;;;;;;;1.80;1.40;;;21.00;57.90;;;;;;5091665;28;20972;-65
2021/03/29 11:20:51;;;;;;;1.20;1.10;;;21.20;57.60;;;;;;5092218;28;20521;-68
2021/03/29 11:23:20;;;;;;;1.90;1.20;;;21.40;55.50;;;;;;5091213;28;20468;-66
2021/03/29 11:25:47;;;;;;;1.60;1.20;;;21.50;54.10;;;;;;5093133;28;20505;-66
2021/03/29 11:28:13;;;;;;;2.40;1.60;;;21.60;56.60;;;;;;5091663;28;20456;-66
2021/03/29 11:30:39;;;;;;;1.50;1.20;;;21.90;56.90;;;;;;5093411;28;20479;-65
2021/03/29 11:33:06;;;;;;;1.50;1.50;;;22.00;56.80;;;;;;5091153;28;20456;-66
2021/03/29 11:35:32;;;;;;;1.60;1.20;;;22.10;56.50;;;;;;5091687;28;20456;-66
2021/03/29 11:37:59;;;;;;;1.43;1.20;;;22.20;56.80;;;;;;5091217;28;20452;-66
2021/03/29 11:40:26;;;;;;;1.30;1.20;;;22.40;55.30;;;;;;5092967;28;20981;-65
2021/03/29 11:42:53;;;;;;;1.43;1.20;;;22.50;55.50;;;;;;5091388;28;20456;-66
2021/03/29 11:45:19;;;;;;;1.20;1.20;;;22.60;56.00;;;;;;5090603;28;20516;-65
2021/03/29 11:47:46;;;;;;;1.20;1.00;;;22.90;53.70;;;;;;5091826;28;20463;-66
2021/03/29 11:50:15;;;;;;;2.63;1.60;;;23.00;54.50;;;;;;5089350;28;21066;-66
2021/03/29 11:52:41;;;;;;;1.40;1.20;;;23.00;53.50;;;;;;5092923;28;20822;-66
2021/03/29 11:55:09;;;;;;;1.30;1.20;;;23.00;51.80;;;;;;5090595;28;20890;-66
2021/03/29 11:57:37;;;;;;;1.67;1.20;;;23.20;51.50;;;;;;5092988;28;20516;-66
2021/03/29 12:00:07;;;;;;;1.20;1.00;;;23.20;50.30;;;;;;5090643;28;20463;-66
2021/03/29 12:02:35;;;;;;;1.30;1.10;;;22.90;52.20;;;;;;5092570;28;20981;-66
2021/03/29 12:05:07;;;;;;;1.43;1.23;;;22.70;51.20;;;;;;5090554;28;20782;-66
2021/03/29 12:07:41;;;;;;;1.60;1.10;;;22.70;52.90;;;;;;5091583;28;20456;-66
2021/03/29 12:12:57;;;;;;;1.73;1.30;;;22.40;53.80;;;;;;5092417;28;20452;-66
2021/03/29 12:15:28;;;;;;;2.50;1.60;;;22.50;53.90;;;;;;5089925;28;20456;-66
2021/03/29 12:17:56;;;;;;;1.20;1.20;;;22.50;54.00;;;;;;5091805;28;20462;-66
2021/03/29 12:20:23;;;;;;;2.50;1.33;;;22.30;54.00;;;;;;5090375;28;20811;-66
2021/03/29 12:22:52;;;;;;;1.50;1.27;;;22.10;52.90;;;;;;5092360;28;20448;-66
2021/03/29 12:25:21;;;;;;;1.30;1.20;;;22.10;54.30;;;;;;5089669;28;20760;-66
2021/03/29 12:27:48;;;;;;;1.60;1.40;;;22.10;53.80;;;;;;5092006;28;20741;-66
2021/03/29 12:30:18;;;;;;;1.30;1.27;;;22.10;54.90;;;;;;5089554;28;20479;-68
2021/03/29 12:32:47;;;;;;;1.30;1.20;;;22.10;56.10;;;;;;5091706;28;20554;-67
2021/03/29 12:35:18;;;;;;;1.50;1.50;;;22.00;54.60;;;;;;5089419;28;20484;-66
2021/03/29 12:37:46;;;;;;;1.40;1.20;;;22.00;54.20;;;;;;5091704;28;20462;-65
2021/03/29 12:40:17;;;;;;;1.60;1.27;;;22.00;55.60;;;;;;5089581;28;20480;-67
2021/03/29 12:43:05;;;;;;;1.20;1.00;;;22.00;54.40;;;;;;5091496;28;20451;-67
2021/03/29 12:45:33;;;;;;;1.50;1.20;;;22.10;55.50;;;;;;5091184;28;20966;-67
2021/03/29 12:48:05;;;;;;;1.20;1.10;;;22.30;55.70;;;;;;5091022;28;20488;-68
2021/03/29 12:50:34;;;;;;;1.30;1.20;;;22.40;53.70;;;;;;5091808;28;20480;-67
2021/03/29 12:53:01;;;;;;;1.60;1.20;;;22.50;55.70;;;;;;5091154;28;20512;-67
2021/03/29 12:55:29;;;;;;;2.13;1.33;;;22.60;52.50;;;;;;5090461;28;20460;-67
2021/03/29 12:57:58;;;;;;;1.47;1.23;;;22.70;52.70;;;;;;5091432;28;20452;-68
2021/03/29 13:00:26;;;;;;;1.27;1.17;;;22.80;53.30;;;;;;5089580;28;20483;-66
2021/03/29 13:02:56;;;;;;;1.87;1.57;;;22.80;53.90;;;;;;5091621;28;20501;-67
2021/03/29 13:05:28;;;;;;;1.60;1.40;;;23.00;56.60;;;;;;5089281;28;20479;-67
2021/03/29 13:07:59;;;;;;;1.57;1.47;;;23.40;59.50;;;;;;5091676;28;20561;-67
2021/03/29 13:11:01;;;;;;;1.30;1.20;;;23.70;55.40;;;;;;5089177;28;20480;-67
2021/03/29 13:13:27;;;;;;;3.00;1.43;;;24.00;56.50;;;;;;5089827;28;20448;-67